Canakkale, Turkey

12:18 PM EEST on April 21, 2015 (GMT +0300)
Canakkale Air Base | | Change Station
CLOSE
Current Station
Airport
Location: Canakkale,
Elevation: 10 ft
Nearby Weather Stations

Elev 10 ft 40.14 °N, 26.42 °E | Updated 28 minutes ago

Light Rain Showers
Light Showers Rain
52 °F
Feels Like 52 °F
N
14
Wind Variable Wind from NE

Today
High -- | Low -- °F
--% Chance of Precip.
Yesterday
High -- | Low -- °F
Precip. -- in
6:28 AM 7:58 PM
Waxing Crescent, 9% visible
Pressure 30.01 in
Visibility 6.2 miles
Clouds Few 1500 ft
Scattered Clouds 3500 ft
Mostly Cloudy 10000 ft
Dew Point 45 °F
Humidity 76%
Rainfall 0.00 in
Snow Depth Not available.
UV 4 out of 12
Pollen Not available.
Air Quality Not available.
Flu Activity Not available.
METAR LTBH 210850Z 05012KT 9999 -SHRA FEW015 SCT035 BKN100 11/07 Q1016

More Conditions Fewer Conditions

Pressure 30.01 in
Visibility 6.2 miles
Clouds Few 1500 ft
Scattered Clouds 3500 ft
Mostly Cloudy 10000 ft
Dew Point 45 °F
Humidity 76%
Rainfall 0.00 in
Snow Depth Not available.
UV 4 out of 12
Pollen Not available.
Air Quality Not available.
Flu Activity Not available.
METAR LTBH 210850Z 05012KT 9999 -SHRA FEW015 SCT035 BKN100 11/07 Q1016

More Conditions Fewer Conditions

10-Day Weather Forecast

Almanac

Astronomy

Apr. 21, 2015 Rise Set
Actual Time
Civil Twilight
Nautical Twilight
Astronomical Twilight
Moon
Length of Visible Light
Length of Day
Tomorrow will be .
, % of the Moon is Illuminated

Today's Extremes

Country Highs Country Lows

Community

WunderPhotos

Upload Photos

1,815,329 photos uploaded!

WunderBlogs® & News

Nearby

Air Quality

  Air Quality AQ Index Pollutant
Not available.

Snow Depth

Station Depth Elevation

Earthquake Activity

City Distance Mag. Time & Date
Minimum magnitude displayed is 2.5.

Coastal Water Temperatures

Place Temperature

Stations

Nearby Weather Stations

Station Location Temp. Windchill Dew Point Humidity Wind Precip. Elev Updated Type